sensor_id;sensor_type;location;lat;lon;timestamp;P1;durP1;ratioP1;P2;durP2;ratioP2
40489;SDS011;26196;52.302;10.572;2022-11-20T00:05:14;9.50;;;6.18;;
40489;SDS011;26196;52.302;10.572;2022-11-20T00:09:15;7.80;;;5.75;;
40489;SDS011;26196;52.302;10.572;2022-11-20T00:13:15;9.70;;;6.30;;
40489;SDS011;26196;52.302;10.572;2022-11-20T00:17:15;13.10;;;6.53;;
40489;SDS011;26196;52.302;10.572;2022-11-20T00:25:55;9.63;;;6.20;;
40489;SDS011;26196;52.302;10.572;2022-11-20T00:29:55;10.70;;;5.82;;
40489;SDS011;26196;52.302;10.572;2022-11-20T00:33:56;8.32;;;5.70;;
40489;SDS011;26196;52.302;10.572;2022-11-20T00:37:56;8.75;;;5.60;;
40489;SDS011;26196;52.302;10.572;2022-11-20T00:41:56;9.50;;;6.00;;
40489;SDS011;26196;52.302;10.572;2022-11-20T00:46:06;9.38;;;6.10;;
40489;SDS011;26196;52.302;10.572;2022-11-20T00:50:08;10.93;;;7.10;;
40489;SDS011;26196;52.302;10.572;2022-11-20T00:54:09;10.02;;;5.38;;
40489;SDS011;26196;52.302;10.572;2022-11-20T01:02:47;7.55;;;5.22;;
40489;SDS011;26196;52.302;10.572;2022-11-20T01:06:48;7.13;;;4.33;;
40489;SDS011;26196;52.302;10.572;2022-11-20T01:10:48;7.00;;;5.18;;
40489;SDS011;26196;52.302;10.572;2022-11-20T01:14:48;7.15;;;4.53;;
40489;SDS011;26196;52.302;10.572;2022-11-20T01:18:49;6.78;;;4.05;;
40489;SDS011;26196;52.302;10.572;2022-11-20T01:22:51;6.78;;;4.70;;
40489;SDS011;26196;52.302;10.572;2022-11-20T01:26:52;5.78;;;3.80;;
40489;SDS011;26196;52.302;10.572;2022-11-20T01:30:52;5.65;;;4.03;;
40489;SDS011;26196;52.302;10.572;2022-11-20T01:34:52;6.88;;;4.38;;
40489;SDS011;26196;52.302;10.572;2022-11-20T01:43:28;6.43;;;4.30;;
40489;SDS011;26196;52.302;10.572;2022-11-20T01:51:39;6.40;;;4.03;;
40489;SDS011;26196;52.302;10.572;2022-11-20T01:55:51;6.85;;;4.72;;
40489;SDS011;26196;52.302;10.572;2022-11-20T01:59:59;6.57;;;4.20;;
40489;SDS011;26196;52.302;10.572;2022-11-20T02:04:09;5.32;;;3.65;;
40489;SDS011;26196;52.302;10.572;2022-11-20T02:08:10;6.13;;;4.00;;
40489;SDS011;26196;52.302;10.572;2022-11-20T02:12:11;6.47;;;4.05;;
40489;SDS011;26196;52.302;10.572;2022-11-20T02:16:36;6.75;;;3.70;;
40489;SDS011;26196;52.302;10.572;2022-11-20T02:20:40;7.15;;;4.50;;
40489;SDS011;26196;52.302;10.572;2022-11-20T02:24:45;6.50;;;4.60;;
40489;SDS011;26196;52.302;10.572;2022-11-20T02:28:48;5.63;;;3.75;;
40489;SDS011;26196;52.302;10.572;2022-11-20T02:32:50;6.70;;;4.90;;
40489;SDS011;26196;52.302;10.572;2022-11-20T02:36:51;6.03;;;4.13;;
40489;SDS011;26196;52.302;10.572;2022-11-20T02:45:30;5.32;;;3.97;;
40489;SDS011;26196;52.302;10.572;2022-11-20T02:49:31;4.85;;;3.38;;
40489;SDS011;26196;52.302;10.572;2022-11-20T02:53:31;5.60;;;3.55;;
40489;SDS011;26196;52.302;10.572;2022-11-20T02:57:32;6.28;;;4.00;;
40489;SDS011;26196;52.302;10.572;2022-11-20T03:06:07;6.15;;;3.67;;
40489;SDS011;26196;52.302;10.572;2022-11-20T03:10:08;6.88;;;3.67;;
40489;SDS011;26196;52.302;10.572;2022-11-20T03:14:08;5.85;;;4.15;;
40489;SDS011;26196;52.302;10.572;2022-11-20T03:18:09;4.78;;;3.30;;
40489;SDS011;26196;52.302;10.572;2022-11-20T03:22:09;5.97;;;3.83;;
40489;SDS011;26196;52.302;10.572;2022-11-20T03:26:13;5.25;;;3.70;;
40489;SDS011;26196;52.302;10.572;2022-11-20T03:30:16;5.03;;;3.58;;
40489;SDS011;26196;52.302;10.572;2022-11-20T03:38:54;5.43;;;3.50;;
40489;SDS011;26196;52.302;10.572;2022-11-20T03:42:55;5.22;;;3.58;;
40489;SDS011;26196;52.302;10.572;2022-11-20T03:46:56;6.35;;;4.00;;
40489;SDS011;26196;52.302;10.572;2022-11-20T03:51:06;6.43;;;4.00;;
40489;SDS011;26196;52.302;10.572;2022-11-20T03:55:14;5.68;;;3.95;;
40489;SDS011;26196;52.302;10.572;2022-11-20T03:59:14;4.65;;;3.50;;
40489;SDS011;26196;52.302;10.572;2022-11-20T04:03:14;6.35;;;4.00;;
40489;SDS011;26196;52.302;10.572;2022-11-20T04:07:15;5.50;;;3.88;;
40489;SDS011;26196;52.302;10.572;2022-11-20T04:11:19;5.95;;;3.58;;
40489;SDS011;26196;52.302;10.572;2022-11-20T04:19:56;5.55;;;3.72;;
40489;SDS011;26196;52.302;10.572;2022-11-20T04:23:57;7.32;;;3.75;;
40489;SDS011;26196;52.302;10.572;2022-11-20T04:27:58;5.18;;;3.50;;
40489;SDS011;26196;52.302;10.572;2022-11-20T04:31:58;8.50;;;3.90;;
40489;SDS011;26196;52.302;10.572;2022-11-20T04:36:00;5.75;;;3.65;;
40489;SDS011;26196;52.302;10.572;2022-11-20T04:40:04;5.47;;;3.83;;
40489;SDS011;26196;52.302;10.572;2022-11-20T04:44:05;6.10;;;3.70;;
40489;SDS011;26196;52.302;10.572;2022-11-20T04:48:06;5.60;;;4.10;;
40489;SDS011;26196;52.302;10.572;2022-11-20T04:52:06;4.70;;;3.55;;
40489;SDS011;26196;52.302;10.572;2022-11-20T05:00:41;6.47;;;4.25;;
40489;SDS011;26196;52.302;10.572;2022-11-20T05:04:41;6.72;;;3.67;;
40489;SDS011;26196;52.302;10.572;2022-11-20T05:08:41;5.97;;;3.78;;
40489;SDS011;26196;52.302;10.572;2022-11-20T05:12:42;6.53;;;4.15;;
40489;SDS011;26196;52.302;10.572;2022-11-20T05:16:42;6.22;;;4.15;;
40489;SDS011;26196;52.302;10.572;2022-11-20T05:20:42;7.10;;;4.50;;
40489;SDS011;26196;52.302;10.572;2022-11-20T05:24:43;5.05;;;3.40;;
40489;SDS011;26196;52.302;10.572;2022-11-20T05:28:43;4.20;;;3.25;;
40489;SDS011;26196;52.302;10.572;2022-11-20T05:37:18;4.63;;;3.58;;
40489;SDS011;26196;52.302;10.572;2022-11-20T05:41:19;7.47;;;3.88;;
40489;SDS011;26196;52.302;10.572;2022-11-20T05:45:20;6.55;;;4.43;;
40489;SDS011;26196;52.302;10.572;2022-11-20T05:49:21;5.65;;;3.75;;
40489;SDS011;26196;52.302;10.572;2022-11-20T05:53:21;4.88;;;3.55;;
40489;SDS011;26196;52.302;10.572;2022-11-20T05:57:21;5.25;;;3.40;;
40489;SDS011;26196;52.302;10.572;2022-11-20T06:01:23;5.88;;;3.55;;
40489;SDS011;26196;52.302;10.572;2022-11-20T06:05:24;5.95;;;3.63;;
40489;SDS011;26196;52.302;10.572;2022-11-20T06:09:24;5.57;;;4.18;;
40489;SDS011;26196;52.302;10.572;2022-11-20T06:13:25;8.27;;;4.00;;
40489;SDS011;26196;52.302;10.572;2022-11-20T06:17:25;5.05;;;3.75;;
40489;SDS011;26196;52.302;10.572;2022-11-20T06:21:25;4.53;;;3.40;;
40489;SDS011;26196;52.302;10.572;2022-11-20T06:30:05;6.07;;;3.95;;
40489;SDS011;26196;52.302;10.572;2022-11-20T06:34:06;4.80;;;3.50;;
40489;SDS011;26196;52.302;10.572;2022-11-20T06:38:07;6.57;;;3.55;;
40489;SDS011;26196;52.302;10.572;2022-11-20T06:42:08;5.20;;;3.55;;
40489;SDS011;26196;52.302;10.572;2022-11-20T06:46:09;6.38;;;3.28;;
40489;SDS011;26196;52.302;10.572;2022-11-20T06:50:11;4.82;;;3.25;;
40489;SDS011;26196;52.302;10.572;2022-11-20T06:58:45;4.28;;;3.28;;
40489;SDS011;26196;52.302;10.572;2022-11-20T07:02:46;4.78;;;3.42;;
40489;SDS011;26196;52.302;10.572;2022-11-20T07:06:46;6.35;;;3.70;;
40489;SDS011;26196;52.302;10.572;2022-11-20T07:10:47;7.30;;;4.22;;
40489;SDS011;26196;52.302;10.572;2022-11-20T07:19:25;4.82;;;3.47;;
40489;SDS011;26196;52.302;10.572;2022-11-20T07:23:26;6.47;;;3.97;;
40489;SDS011;26196;52.302;10.572;2022-11-20T07:27:26;5.63;;;3.50;;
40489;SDS011;26196;52.302;10.572;2022-11-20T07:31:26;5.63;;;3.70;;
40489;SDS011;26196;52.302;10.572;2022-11-20T07:35:26;5.10;;;3.70;;
40489;SDS011;26196;52.302;10.572;2022-11-20T07:39:27;6.90;;;3.75;;
40489;SDS011;26196;52.302;10.572;2022-11-20T07:43:27;5.77;;;3.57;;
40489;SDS011;26196;52.302;10.572;2022-11-20T07:47:28;4.68;;;3.30;;
40489;SDS011;26196;52.302;10.572;2022-11-20T07:51:28;4.32;;;3.25;;
40489;SDS011;26196;52.302;10.572;2022-11-20T08:00:04;4.95;;;3.05;;
40489;SDS011;26196;52.302;10.572;2022-11-20T08:04:07;4.32;;;2.88;;
40489;SDS011;26196;52.302;10.572;2022-11-20T08:08:07;4.00;;;3.15;;
40489;SDS011;26196;52.302;10.572;2022-11-20T08:17:05;7.07;;;4.80;;
40489;SDS011;26196;52.302;10.572;2022-11-20T08:25:40;5.35;;;4.05;;
40489;SDS011;26196;52.302;10.572;2022-11-20T08:34:15;6.40;;;4.47;;
40489;SDS011;26196;52.302;10.572;2022-11-20T08:42:53;9.18;;;4.57;;
40489;SDS011;26196;52.302;10.572;2022-11-20T08:51:31;9.77;;;5.65;;
40489;SDS011;26196;52.302;10.572;2022-11-20T08:55:32;13.07;;;6.78;;
40489;SDS011;26196;52.302;10.572;2022-11-20T08:59:35;20.50;;;7.57;;
40489;SDS011;26196;52.302;10.572;2022-11-20T09:03:35;13.57;;;6.13;;
40489;SDS011;26196;52.302;10.572;2022-11-20T09:07:35;14.68;;;6.30;;
40489;SDS011;26196;52.302;10.572;2022-11-20T09:16:14;13.27;;;6.05;;
40489;SDS011;26196;52.302;10.572;2022-11-20T09:20:14;12.77;;;4.75;;
40489;SDS011;26196;52.302;10.572;2022-11-20T09:24:16;8.65;;;4.68;;
40489;SDS011;26196;52.302;10.572;2022-11-20T09:28:16;10.27;;;5.10;;
40489;SDS011;26196;52.302;10.572;2022-11-20T09:32:18;8.88;;;4.72;;
40489;SDS011;26196;52.302;10.572;2022-11-20T09:37:45;2.95;;;2.10;;
40489;SDS011;26196;52.302;10.572;2022-11-20T09:53:13;9.07;;;5.43;;
40489;SDS011;26196;52.302;10.572;2022-11-20T09:57:20;7.73;;;4.30;;
40489;SDS011;26196;52.302;10.572;2022-11-20T10:01:32;8.13;;;4.47;;
40489;SDS011;26196;52.302;10.572;2022-11-20T10:05:46;6.45;;;3.95;;
40489;SDS011;26196;52.302;10.572;2022-11-20T10:09:53;7.32;;;4.72;;
40489;SDS011;26196;52.302;10.572;2022-11-20T10:18:23;6.63;;;4.57;;
40489;SDS011;26196;52.302;10.572;2022-11-20T10:22:48;6.93;;;4.65;;
40489;SDS011;26196;52.302;10.572;2022-11-20T10:27:02;9.43;;;4.97;;
40489;SDS011;26196;52.302;10.572;2022-11-20T10:31:08;8.18;;;4.55;;
40489;SDS011;26196;52.302;10.572;2022-11-20T10:39:46;8.07;;;4.88;;
40489;SDS011;26196;52.302;10.572;2022-11-20T10:44:14;7.72;;;4.43;;
40489;SDS011;26196;52.302;10.572;2022-11-20T10:48:42;6.45;;;4.05;;
40489;SDS011;26196;52.302;10.572;2022-11-20T11:01:46;8.90;;;4.05;;
40489;SDS011;26196;52.302;10.572;2022-11-20T11:09:52;9.00;;;4.40;;
40489;SDS011;26196;52.302;10.572;2022-11-20T11:14:11;8.52;;;4.57;;
40489;SDS011;26196;52.302;10.572;2022-11-20T11:18:22;6.25;;;4.78;;
40489;SDS011;26196;52.302;10.572;2022-11-20T11:22:30;9.25;;;6.32;;
40489;SDS011;26196;52.302;10.572;2022-11-20T11:26:33;9.05;;;4.25;;
40489;SDS011;26196;52.302;10.572;2022-11-20T11:30:43;6.47;;;4.57;;
40489;SDS011;26196;52.302;10.572;2022-11-20T11:34:44;6.63;;;4.38;;
40489;SDS011;26196;52.302;10.572;2022-11-20T11:38:45;6.95;;;5.13;;
40489;SDS011;26196;52.302;10.572;2022-11-20T11:42:56;8.75;;;4.75;;
40489;SDS011;26196;52.302;10.572;2022-11-20T11:46:58;7.65;;;4.68;;
40489;SDS011;26196;52.302;10.572;2022-11-20T11:51:00;9.05;;;4.68;;
40489;SDS011;26196;52.302;10.572;2022-11-20T11:55:01;7.97;;;4.97;;
40489;SDS011;26196;52.302;10.572;2022-11-20T11:59:06;7.07;;;4.95;;
40489;SDS011;26196;52.302;10.572;2022-11-20T12:03:17;6.88;;;4.57;;
40489;SDS011;26196;52.302;10.572;2022-11-20T12:07:33;7.63;;;4.93;;
40489;SDS011;26196;52.302;10.572;2022-11-20T12:15:54;7.35;;;4.20;;
40489;SDS011;26196;52.302;10.572;2022-11-20T12:19:54;6.72;;;4.50;;
40489;SDS011;26196;52.302;10.572;2022-11-20T12:24:06;5.80;;;3.88;;
40489;SDS011;26196;52.302;10.572;2022-11-20T12:50:33;6.35;;;4.40;;
40489;SDS011;26196;52.302;10.572;2022-11-20T12:54:44;5.57;;;4.30;;
40489;SDS011;26196;52.302;10.572;2022-11-20T13:07:50;5.32;;;3.60;;
40489;SDS011;26196;52.302;10.572;2022-11-20T13:11:58;6.65;;;4.15;;
40489;SDS011;26196;52.302;10.572;2022-11-20T13:16:25;5.50;;;3.60;;
40489;SDS011;26196;52.302;10.572;2022-11-20T13:20:29;7.88;;;4.88;;
40489;SDS011;26196;52.302;10.572;2022-11-20T13:24:32;8.23;;;4.40;;
40489;SDS011;26196;52.302;10.572;2022-11-20T13:28:33;8.55;;;4.80;;
40489;SDS011;26196;52.302;10.572;2022-11-20T13:32:34;9.68;;;5.32;;
40489;SDS011;26196;52.302;10.572;2022-11-20T13:36:35;6.68;;;4.53;;
40489;SDS011;26196;52.302;10.572;2022-11-20T13:40:50;6.53;;;4.53;;
40489;SDS011;26196;52.302;10.572;2022-11-20T13:45:01;7.60;;;4.35;;
40489;SDS011;26196;52.302;10.572;2022-11-20T13:49:09;6.75;;;4.70;;
40489;SDS011;26196;52.302;10.572;2022-11-20T13:53:39;8.20;;;4.90;;
40489;SDS011;26196;52.302;10.572;2022-11-20T14:07:22;5.80;;;3.85;;
40489;SDS011;26196;52.302;10.572;2022-11-20T14:11:27;5.85;;;3.60;;
40489;SDS011;26196;52.302;10.572;2022-11-20T14:15:30;8.02;;;3.25;;
40489;SDS011;26196;52.302;10.572;2022-11-20T14:19:32;6.63;;;3.72;;
40489;SDS011;26196;52.302;10.572;2022-11-20T14:23:33;5.43;;;3.42;;
40489;SDS011;26196;52.302;10.572;2022-11-20T14:27:35;6.32;;;3.53;;
40489;SDS011;26196;52.302;10.572;2022-11-20T14:31:37;6.10;;;3.63;;
40489;SDS011;26196;52.302;10.572;2022-11-20T14:35:45;6.13;;;3.33;;
40489;SDS011;26196;52.302;10.572;2022-11-20T14:39:51;4.82;;;3.45;;
40489;SDS011;26196;52.302;10.572;2022-11-20T14:43:57;5.82;;;3.70;;
40489;SDS011;26196;52.302;10.572;2022-11-20T14:47:59;5.78;;;3.67;;
40489;SDS011;26196;52.302;10.572;2022-11-20T14:52:10;4.97;;;3.70;;
40489;SDS011;26196;52.302;10.572;2022-11-20T14:56:24;6.20;;;3.40;;
40489;SDS011;26196;52.302;10.572;2022-11-20T15:00:25;5.20;;;3.13;;
40489;SDS011;26196;52.302;10.572;2022-11-20T15:04:25;7.63;;;3.55;;
40489;SDS011;26196;52.302;10.572;2022-11-20T15:08:26;5.32;;;3.78;;
40489;SDS011;26196;52.302;10.572;2022-11-20T15:12:27;5.75;;;4.22;;
40489;SDS011;26196;52.302;10.572;2022-11-20T15:16:28;6.25;;;4.32;;
40489;SDS011;26196;52.302;10.572;2022-11-20T15:20:31;7.15;;;3.85;;
40489;SDS011;26196;52.302;10.572;2022-11-20T15:24:33;5.85;;;3.80;;
40489;SDS011;26196;52.302;10.572;2022-11-20T15:28:34;7.03;;;4.00;;
40489;SDS011;26196;52.302;10.572;2022-11-20T15:32:37;6.55;;;3.92;;
40489;SDS011;26196;52.302;10.572;2022-11-20T15:36:37;5.47;;;4.27;;
40489;SDS011;26196;52.302;10.572;2022-11-20T15:40:38;6.90;;;4.35;;
40489;SDS011;26196;52.302;10.572;2022-11-20T15:44:39;6.35;;;4.95;;
40489;SDS011;26196;52.302;10.572;2022-11-20T15:48:43;6.15;;;4.70;;
40489;SDS011;26196;52.302;10.572;2022-11-20T15:52:45;7.60;;;5.20;;
40489;SDS011;26196;52.302;10.572;2022-11-20T15:56:46;7.35;;;5.60;;
40489;SDS011;26196;52.302;10.572;2022-11-20T16:00:48;7.55;;;5.03;;
40489;SDS011;26196;52.302;10.572;2022-11-20T16:04:48;7.35;;;5.43;;
40489;SDS011;26196;52.302;10.572;2022-11-20T16:08:48;7.57;;;4.77;;
40489;SDS011;26196;52.302;10.572;2022-11-20T16:12:49;9.63;;;4.80;;
40489;SDS011;26196;52.302;10.572;2022-11-20T16:17:08;7.15;;;5.28;;
40489;SDS011;26196;52.302;10.572;2022-11-20T16:21:10;7.33;;;5.40;;
40489;SDS011;26196;52.302;10.572;2022-11-20T16:25:14;6.20;;;5.10;;
40489;SDS011;26196;52.302;10.572;2022-11-20T16:29:15;8.32;;;4.88;;
40489;SDS011;26196;52.302;10.572;2022-11-20T16:33:16;8.73;;;5.60;;
40489;SDS011;26196;52.302;10.572;2022-11-20T16:37:17;7.13;;;4.72;;
40489;SDS011;26196;52.302;10.572;2022-11-20T16:41:17;8.17;;;4.83;;
40489;SDS011;26196;52.302;10.572;2022-11-20T16:45:17;7.00;;;5.03;;
40489;SDS011;26196;52.302;10.572;2022-11-20T16:49:18;8.25;;;6.10;;
40489;SDS011;26196;52.302;10.572;2022-11-20T16:53:19;8.23;;;5.68;;
40489;SDS011;26196;52.302;10.572;2022-11-20T16:57:20;9.30;;;5.78;;
40489;SDS011;26196;52.302;10.572;2022-11-20T17:01:22;8.15;;;5.70;;
40489;SDS011;26196;52.302;10.572;2022-11-20T17:05:23;9.60;;;5.93;;
40489;SDS011;26196;52.302;10.572;2022-11-20T17:09:23;8.23;;;5.50;;
40489;SDS011;26196;52.302;10.572;2022-11-20T17:13:24;8.15;;;5.80;;
40489;SDS011;26196;52.302;10.572;2022-11-20T17:17:24;9.38;;;5.75;;
40489;SDS011;26196;52.302;10.572;2022-11-20T17:21:24;8.87;;;5.83;;
40489;SDS011;26196;52.302;10.572;2022-11-20T17:25:25;8.63;;;5.40;;
40489;SDS011;26196;52.302;10.572;2022-11-20T17:29:26;7.88;;;5.35;;
40489;SDS011;26196;52.302;10.572;2022-11-20T17:33:26;10.75;;;5.47;;
40489;SDS011;26196;52.302;10.572;2022-11-20T17:37:27;10.35;;;5.82;;
40489;SDS011;26196;52.302;10.572;2022-11-20T17:41:28;6.95;;;4.78;;
40489;SDS011;26196;52.302;10.572;2022-11-20T17:45:29;8.48;;;5.80;;
40489;SDS011;26196;52.302;10.572;2022-11-20T17:49:29;9.30;;;5.97;;
40489;SDS011;26196;52.302;10.572;2022-11-20T17:53:33;9.55;;;5.30;;
40489;SDS011;26196;52.302;10.572;2022-11-20T17:57:35;9.73;;;6.15;;
40489;SDS011;26196;52.302;10.572;2022-11-20T18:01:55;9.63;;;5.70;;
40489;SDS011;26196;52.302;10.572;2022-11-20T18:05:56;9.18;;;6.18;;
40489;SDS011;26196;52.302;10.572;2022-11-20T18:09:56;8.27;;;6.38;;
40489;SDS011;26196;52.302;10.572;2022-11-20T18:13:57;9.17;;;6.43;;
40489;SDS011;26196;52.302;10.572;2022-11-20T18:18:17;9.02;;;5.72;;
40489;SDS011;26196;52.302;10.572;2022-11-20T18:22:18;7.93;;;6.30;;
40489;SDS011;26196;52.302;10.572;2022-11-20T18:26:18;11.23;;;7.97;;
40489;SDS011;26196;52.302;10.572;2022-11-20T18:30:19;11.05;;;6.95;;
40489;SDS011;26196;52.302;10.572;2022-11-20T18:34:19;13.07;;;6.70;;
40489;SDS011;26196;52.302;10.572;2022-11-20T18:38:19;8.48;;;6.28;;
40489;SDS011;26196;52.302;10.572;2022-11-20T18:42:20;12.45;;;8.05;;
40489;SDS011;26196;52.302;10.572;2022-11-20T18:46:39;10.70;;;6.63;;
40489;SDS011;26196;52.302;10.572;2022-11-20T18:50:39;10.00;;;7.10;;
40489;SDS011;26196;52.302;10.572;2022-11-20T18:54:39;13.48;;;7.40;;
40489;SDS011;26196;52.302;10.572;2022-11-20T18:58:40;12.10;;;8.25;;
40489;SDS011;26196;52.302;10.572;2022-11-20T19:02:40;15.27;;;8.10;;
40489;SDS011;26196;52.302;10.572;2022-11-20T19:06:41;12.68;;;8.15;;
40489;SDS011;26196;52.302;10.572;2022-11-20T19:10:43;13.10;;;8.60;;
40489;SDS011;26196;52.302;10.572;2022-11-20T19:14:43;15.25;;;8.68;;
40489;SDS011;26196;52.302;10.572;2022-11-20T19:18:44;11.38;;;8.32;;
40489;SDS011;26196;52.302;10.572;2022-11-20T19:22:48;15.80;;;9.70;;
40489;SDS011;26196;52.302;10.572;2022-11-20T19:26:49;16.80;;;11.35;;
40489;SDS011;26196;52.302;10.572;2022-11-20T19:30:49;22.05;;;14.45;;
40489;SDS011;26196;52.302;10.572;2022-11-20T19:34:50;19.70;;;12.03;;
40489;SDS011;26196;52.302;10.572;2022-11-20T19:38:50;22.00;;;11.20;;
40489;SDS011;26196;52.302;10.572;2022-11-20T19:42:52;15.48;;;10.45;;
40489;SDS011;26196;52.302;10.572;2022-11-20T19:46:52;13.83;;;10.23;;
40489;SDS011;26196;52.302;10.572;2022-11-20T19:50:52;15.90;;;10.32;;
40489;SDS011;26196;52.302;10.572;2022-11-20T19:54:53;14.83;;;10.43;;
40489;SDS011;26196;52.302;10.572;2022-11-20T19:58:53;16.80;;;10.30;;
40489;SDS011;26196;52.302;10.572;2022-11-20T20:02:54;11.15;;;8.32;;
40489;SDS011;26196;52.302;10.572;2022-11-20T20:06:55;12.32;;;8.25;;
40489;SDS011;26196;52.302;10.572;2022-11-20T20:10:55;12.23;;;8.27;;
40489;SDS011;26196;52.302;10.572;2022-11-20T20:14:56;12.48;;;8.30;;
40489;SDS011;26196;52.302;10.572;2022-11-20T20:18:57;10.40;;;7.18;;
40489;SDS011;26196;52.302;10.572;2022-11-20T20:23:00;13.15;;;9.07;;
40489;SDS011;26196;52.302;10.572;2022-11-20T20:27:01;9.60;;;7.03;;
40489;SDS011;26196;52.302;10.572;2022-11-20T20:31:09;9.90;;;7.47;;
40489;SDS011;26196;52.302;10.572;2022-11-20T20:35:11;12.07;;;8.15;;
40489;SDS011;26196;52.302;10.572;2022-11-20T20:39:11;12.65;;;8.90;;
40489;SDS011;26196;52.302;10.572;2022-11-20T20:43:11;10.40;;;7.07;;
40489;SDS011;26196;52.302;10.572;2022-11-20T20:47:12;11.43;;;7.67;;
40489;SDS011;26196;52.302;10.572;2022-11-20T20:51:12;10.13;;;6.57;;
40489;SDS011;26196;52.302;10.572;2022-11-20T20:55:13;15.23;;;8.05;;
40489;SDS011;26196;52.302;10.572;2022-11-20T20:59:14;13.73;;;8.88;;
40489;SDS011;26196;52.302;10.572;2022-11-20T21:03:14;11.35;;;7.72;;
40489;SDS011;26196;52.302;10.572;2022-11-20T21:07:15;11.40;;;7.05;;
40489;SDS011;26196;52.302;10.572;2022-11-20T21:11:16;12.35;;;7.80;;
40489;SDS011;26196;52.302;10.572;2022-11-20T21:15:18;11.23;;;7.07;;
40489;SDS011;26196;52.302;10.572;2022-11-20T21:19:18;11.85;;;8.20;;
40489;SDS011;26196;52.302;10.572;2022-11-20T21:23:18;11.97;;;7.80;;
40489;SDS011;26196;52.302;10.572;2022-11-20T21:27:19;12.13;;;7.70;;
40489;SDS011;26196;52.302;10.572;2022-11-20T21:31:20;12.07;;;7.60;;
40489;SDS011;26196;52.302;10.572;2022-11-20T21:35:22;12.60;;;7.45;;
40489;SDS011;26196;52.302;10.572;2022-11-20T21:39:22;12.18;;;8.35;;
40489;SDS011;26196;52.302;10.572;2022-11-20T21:43:23;9.85;;;6.75;;
40489;SDS011;26196;52.302;10.572;2022-11-20T21:47:23;11.27;;;7.90;;
40489;SDS011;26196;52.302;10.572;2022-11-20T21:51:25;11.57;;;8.15;;
40489;SDS011;26196;52.302;10.572;2022-11-20T21:55:26;10.10;;;7.10;;
40489;SDS011;26196;52.302;10.572;2022-11-20T21:59:26;12.10;;;7.27;;
40489;SDS011;26196;52.302;10.572;2022-11-20T22:03:27;9.68;;;7.18;;
40489;SDS011;26196;52.302;10.572;2022-11-20T22:07:27;11.00;;;7.23;;
40489;SDS011;26196;52.302;10.572;2022-11-20T22:11:28;11.20;;;6.22;;
40489;SDS011;26196;52.302;10.572;2022-11-20T22:15:28;8.23;;;6.47;;
40489;SDS011;26196;52.302;10.572;2022-11-20T22:19:29;10.63;;;6.32;;
40489;SDS011;26196;52.302;10.572;2022-11-20T22:23:29;8.97;;;6.00;;
40489;SDS011;26196;52.302;10.572;2022-11-20T22:27:29;8.43;;;5.40;;
40489;SDS011;26196;52.302;10.572;2022-11-20T22:31:30;7.37;;;4.80;;
40489;SDS011;26196;52.302;10.572;2022-11-20T22:35:31;7.95;;;5.75;;
40489;SDS011;26196;52.302;10.572;2022-11-20T22:39:31;7.47;;;5.07;;
40489;SDS011;26196;52.302;10.572;2022-11-20T22:43:31;8.27;;;5.03;;
40489;SDS011;26196;52.302;10.572;2022-11-20T22:47:32;7.50;;;5.18;;
40489;SDS011;26196;52.302;10.572;2022-11-20T22:51:36;7.93;;;4.87;;
40489;SDS011;26196;52.302;10.572;2022-11-20T22:55:39;7.75;;;5.10;;
40489;SDS011;26196;52.302;10.572;2022-11-20T22:59:39;7.28;;;4.88;;
40489;SDS011;26196;52.302;10.572;2022-11-20T23:03:41;6.93;;;4.68;;
40489;SDS011;26196;52.302;10.572;2022-11-20T23:07:43;6.45;;;5.10;;
40489;SDS011;26196;52.302;10.572;2022-11-20T23:11:43;9.57;;;5.17;;
40489;SDS011;26196;52.302;10.572;2022-11-20T23:15:43;5.87;;;4.50;;
40489;SDS011;26196;52.302;10.572;2022-11-20T23:19:44;8.48;;;6.38;;
40489;SDS011;26196;52.302;10.572;2022-11-20T23:23:51;6.70;;;4.85;;
40489;SDS011;26196;52.302;10.572;2022-11-20T23:27:53;5.72;;;4.57;;
40489;SDS011;26196;52.302;10.572;2022-11-20T23:31:54;7.45;;;5.53;;
40489;SDS011;26196;52.302;10.572;2022-11-20T23:35:54;7.18;;;5.28;;
40489;SDS011;26196;52.302;10.572;2022-11-20T23:39:54;5.68;;;4.65;;
40489;SDS011;26196;52.302;10.572;2022-11-20T23:43:55;6.97;;;4.40;;
40489;SDS011;26196;52.302;10.572;2022-11-20T23:47:55;6.18;;;4.40;;
40489;SDS011;26196;52.302;10.572;2022-11-20T23:51:55;6.43;;;4.20;;
40489;SDS011;26196;52.302;10.572;2022-11-20T23:55:56;6.32;;;4.28;;
40489;SDS011;26196;52.302;10.572;2022-11-20T23:59:58;6.40;;;4.53;;
